createdAt,value
2023-03-05T00:01:24.874Z,97290.00
2023-03-05T00:03:54.102Z,97282.00
2023-03-05T00:06:23.762Z,97288.00
2023-03-05T00:08:55.043Z,97281.00
2023-03-05T00:11:21.809Z,97287.00
2023-03-05T00:13:52.044Z,97275.00
2023-03-05T00:16:20.047Z,97273.00
2023-03-05T00:18:47.090Z,97268.00
2023-03-05T00:21:35.832Z,97267.00
2023-03-05T00:24:06.732Z,97269.00
2023-03-05T00:26:37.203Z,97269.00
2023-03-05T00:29:05.430Z,97267.00
2023-03-05T00:31:34.262Z,97265.00
2023-03-05T00:34:05.997Z,97267.00
2023-03-05T00:36:33.163Z,97261.00
2023-03-05T00:39:00.240Z,97262.00
2023-03-05T00:41:27.739Z,97255.00
2023-03-05T00:43:54.554Z,97262.00
2023-03-05T00:46:21.737Z,97254.00
2023-03-05T00:48:48.702Z,97266.00
2023-03-05T00:51:15.541Z,97257.00
2023-03-05T00:53:42.284Z,97246.00
2023-03-05T00:56:09.204Z,97241.00
2023-03-05T00:58:35.985Z,97241.00
2023-03-05T01:01:03.984Z,97236.00
2023-03-05T01:03:33.392Z,97244.00
2023-03-05T01:06:01.390Z,97235.00
2023-03-05T01:08:28.563Z,97229.00
2023-03-05T01:10:55.448Z,97217.00
2023-03-05T01:13:22.263Z,97217.00
2023-03-05T01:15:50.956Z,97206.00
2023-03-05T01:18:19.250Z,97210.00
2023-03-05T01:20:46.246Z,97209.00
2023-03-05T01:23:13.129Z,97199.00
2023-03-05T01:25:40.003Z,97199.00
2023-03-05T01:28:07.199Z,97208.00
2023-03-05T01:30:34.732Z,97219.00
2023-03-05T01:33:02.175Z,97217.00
2023-03-05T01:35:29.471Z,97221.00
2023-03-05T01:37:56.637Z,97222.00
2023-03-05T01:40:30.046Z,97222.00
2023-03-05T01:43:11.735Z,97212.00
2023-03-05T01:45:59.753Z,97205.00
2023-03-05T01:48:27.187Z,97205.00
2023-03-05T01:50:54.291Z,97188.00
2023-03-05T01:53:21.046Z,97205.00
2023-03-05T01:55:47.862Z,97200.00
2023-03-05T01:58:14.690Z,97200.00
2023-03-05T02:00:48.533Z,97191.00
2023-03-05T02:03:15.455Z,97186.00
2023-03-05T02:05:44.401Z,97190.00
2023-03-05T02:08:15.993Z,97184.00
2023-03-05T02:10:49.466Z,97190.00
2023-03-05T02:13:29.592Z,97192.00
2023-03-05T02:16:00.052Z,97185.00
2023-03-05T02:18:27.287Z,97189.00
2023-03-05T02:20:57.121Z,97178.00
2023-03-05T02:23:36.846Z,97175.00
2023-03-05T02:26:10.403Z,97176.00
2023-03-05T02:28:46.434Z,97180.00
2023-03-05T02:31:23.798Z,97173.00
2023-03-05T02:33:59.853Z,97175.00
2023-03-05T02:36:26.927Z,97174.00
2023-03-05T02:38:53.950Z,97168.00
2023-03-05T02:41:20.782Z,97164.00
2023-03-05T02:43:47.573Z,97164.00
2023-03-05T02:46:14.441Z,97156.00
2023-03-05T02:48:41.205Z,97153.00
2023-03-05T02:51:09.147Z,97156.00
2023-03-05T02:53:36.108Z,97157.00
2023-03-05T02:56:03.464Z,97157.00
2023-03-05T02:58:30.281Z,97145.00
2023-03-05T03:00:57.072Z,97147.00
2023-03-05T03:03:24.004Z,97140.00
2023-03-05T03:05:50.779Z,97132.00
2023-03-05T03:08:17.546Z,97134.00
2023-03-05T03:10:44.304Z,97131.00
2023-03-05T03:13:11.088Z,97135.00
2023-03-05T03:15:39.236Z,97132.00
2023-03-05T03:18:06.469Z,97144.00
2023-03-05T03:20:34.803Z,97126.00
2023-03-05T03:23:01.928Z,97137.00
2023-03-05T03:25:28.706Z,97131.00
2023-03-05T03:27:55.515Z,97125.00
2023-03-05T03:30:22.315Z,97112.00
2023-03-05T03:32:51.051Z,97119.00
2023-03-05T03:35:18.216Z,97125.00
2023-03-05T03:37:45.012Z,97117.00
2023-03-05T03:40:12.338Z,97112.00
2023-03-05T03:42:39.134Z,97117.00
2023-03-05T03:45:06.796Z,97118.00
2023-03-05T03:47:33.582Z,97108.00
2023-03-05T03:50:00.344Z,97110.00
2023-03-05T03:52:27.198Z,97106.00
2023-03-05T03:54:55.693Z,97101.00
2023-03-05T03:57:22.666Z,97113.00
2023-03-05T03:59:50.286Z,97096.00
2023-03-05T04:02:17.639Z,97098.00
2023-03-05T04:04:44.526Z,97090.00
2023-03-05T04:07:11.388Z,97102.00
2023-03-05T04:09:38.500Z,97096.00
2023-03-05T04:12:05.479Z,97090.00
2023-03-05T04:14:32.253Z,97091.00
2023-03-05T04:16:58.993Z,97091.00
2023-03-05T04:19:25.832Z,97083.00
2023-03-05T04:21:52.581Z,97084.00
2023-03-05T04:24:19.320Z,97072.00
2023-03-05T04:26:46.053Z,97079.00
2023-03-05T04:29:12.823Z,97073.00
2023-03-05T04:31:39.602Z,97082.00
2023-03-05T04:34:06.428Z,97068.00
2023-03-05T04:36:33.206Z,97074.00
2023-03-05T04:39:00.003Z,97064.00
2023-03-05T04:41:26.926Z,97068.00
2023-03-05T04:43:53.734Z,97072.00
2023-03-05T04:46:20.542Z,97069.00
2023-03-05T04:48:47.568Z,97068.00
2023-03-05T04:51:14.277Z,97069.00
2023-03-05T04:53:41.043Z,97068.00
2023-03-05T04:56:08.015Z,97073.00
2023-03-05T04:58:34.744Z,97066.00
2023-03-05T05:01:03.954Z,97060.00
2023-03-05T05:03:31.166Z,97062.00
2023-03-05T05:06:00.115Z,97056.00
2023-03-05T05:08:28.136Z,97057.00
2023-03-05T05:11:04.292Z,97052.00
2023-03-05T05:13:32.261Z,97044.00
2023-03-05T05:15:59.443Z,97046.00
2023-03-05T05:18:26.526Z,97045.00
2023-03-05T05:20:53.291Z,97042.00
2023-03-05T05:23:20.115Z,97043.00
2023-03-05T05:25:46.950Z,97040.00
2023-03-05T05:28:13.762Z,97039.00
2023-03-05T05:30:40.559Z,97034.00
2023-03-05T05:33:07.354Z,97035.00
2023-03-05T05:35:39.465Z,97027.00
2023-03-05T05:38:06.237Z,97037.00
2023-03-05T05:40:32.986Z,97036.00
2023-03-05T05:42:59.757Z,97024.00
2023-03-05T05:45:26.676Z,97026.00
2023-03-05T05:47:53.705Z,97029.00
2023-03-05T05:50:21.074Z,97031.00
2023-03-05T05:52:47.851Z,97037.00
2023-03-05T05:55:16.146Z,97038.00
2023-03-05T05:57:42.927Z,97029.00
2023-03-05T06:00:13.029Z,97042.00
2023-03-05T06:02:42.028Z,97038.00
2023-03-05T06:05:13.257Z,97037.00
2023-03-05T06:07:40.050Z,97037.00
2023-03-05T06:10:08.504Z,97033.00
2023-03-05T06:12:35.245Z,97030.00
2023-03-05T06:15:01.978Z,97042.00
2023-03-05T06:17:31.055Z,97025.00
2023-03-05T06:19:58.932Z,97036.00
2023-03-05T06:22:25.876Z,97037.00
2023-03-05T06:24:52.696Z,97041.00
2023-03-05T06:27:19.510Z,97035.00
2023-03-05T06:29:46.266Z,97042.00
2023-03-05T06:32:13.023Z,97042.00
2023-03-05T06:34:39.764Z,97041.00
2023-03-05T06:37:07.240Z,97042.00
2023-03-05T06:39:34.062Z,97046.00
2023-03-05T06:42:00.831Z,97042.00
2023-03-05T06:44:27.634Z,97038.00
2023-03-05T06:46:54.584Z,97041.00
2023-03-05T06:49:21.464Z,97044.00
2023-03-05T06:51:48.375Z,97045.00
2023-03-05T06:54:17.493Z,97035.00
2023-03-05T06:56:46.664Z,97034.00
2023-03-05T06:59:16.005Z,97041.00
2023-03-05T07:01:44.925Z,97033.00
2023-03-05T07:04:13.050Z,97039.00
2023-03-05T07:06:42.105Z,97038.00
2023-03-05T07:09:13.414Z,97033.00
2023-03-05T07:11:40.490Z,97038.00
2023-03-05T07:14:07.642Z,97038.00
2023-03-05T07:16:35.165Z,97029.00
2023-03-05T07:19:06.376Z,97030.00
2023-03-05T07:21:35.967Z,97028.00
2023-03-05T07:24:05.304Z,97017.00
2023-03-05T07:26:33.548Z,97028.00
2023-03-05T07:29:01.594Z,97019.00
2023-03-05T07:31:31.700Z,97030.00
2023-03-05T07:34:01.738Z,97022.00
2023-03-05T07:36:29.241Z,97025.00
2023-03-05T07:38:56.270Z,97022.00
2023-03-05T07:41:23.701Z,97017.00
2023-03-05T07:43:53.785Z,97023.00
2023-03-05T07:46:25.259Z,97021.00
2023-03-05T07:48:54.515Z,97019.00
2023-03-05T07:51:22.981Z,97019.00
2023-03-05T07:53:51.935Z,97011.00
2023-03-05T07:56:24.471Z,97010.00
2023-03-05T07:58:51.375Z,97010.00
2023-03-05T08:01:18.200Z,97011.00
2023-03-05T08:03:45.110Z,97008.00
2023-03-05T08:06:12.878Z,97004.00
2023-03-05T08:08:39.832Z,96996.00
2023-03-05T08:11:11.214Z,96987.00
2023-03-05T08:13:38.540Z,96989.00
2023-03-05T08:16:12.829Z,96991.00
2023-03-05T08:18:39.777Z,97001.00
2023-03-05T08:21:07.052Z,96992.00
2023-03-05T08:23:34.543Z,96996.00
2023-03-05T08:26:01.461Z,96988.00
2023-03-05T08:28:28.532Z,96986.00
2023-03-05T08:30:55.308Z,96973.00
2023-03-05T08:33:22.083Z,96981.00
2023-03-05T08:35:48.864Z,96975.00
2023-03-05T08:38:15.631Z,96973.00
2023-03-05T08:40:43.233Z,96973.00
2023-03-05T08:43:10.041Z,96971.00
2023-03-05T08:45:39.052Z,96969.00
2023-03-05T08:48:06.119Z,96965.00
2023-03-05T08:50:32.878Z,96972.00
2023-03-05T08:53:00.140Z,96967.00
2023-03-05T08:55:26.925Z,96963.00
2023-03-05T08:57:53.702Z,96960.00
2023-03-05T09:00:20.790Z,96964.00
2023-03-05T09:02:47.587Z,96966.00
2023-03-05T09:05:14.469Z,96962.00
2023-03-05T09:07:41.356Z,96955.00
2023-03-05T09:10:11.399Z,96968.00
2023-03-05T09:12:38.150Z,96974.00
2023-03-05T09:15:09.666Z,96970.00
2023-03-05T09:17:41.884Z,96968.00
2023-03-05T09:20:13.899Z,96959.00
2023-03-05T09:22:41.284Z,96964.00
2023-03-05T09:25:10.448Z,96961.00
2023-03-05T09:27:38.500Z,96960.00
2023-03-05T09:30:07.082Z,96957.00
2023-03-05T09:32:33.912Z,96959.00
2023-03-05T09:35:00.998Z,96959.00
2023-03-05T09:37:29.302Z,96953.00
2023-03-05T09:39:57.382Z,96950.00
2023-03-05T09:42:35.900Z,96949.00
2023-03-05T09:45:27.112Z,96948.00
2023-03-05T09:47:57.054Z,96942.00
2023-03-05T09:50:44.751Z,96948.00
2023-03-05T09:53:22.057Z,96936.00
2023-03-05T09:55:59.249Z,96941.00
2023-03-05T09:58:49.822Z,96942.00
2023-03-05T10:01:20.571Z,96936.00
2023-03-05T10:04:04.392Z,96939.00
2023-03-05T10:06:36.684Z,96932.00
2023-03-05T10:09:41.808Z,96936.00
2023-03-05T10:12:24.558Z,96932.00
2023-03-05T10:14:51.390Z,96922.00
2023-03-05T10:17:55.869Z,96923.00
2023-03-05T10:20:58.820Z,96918.00
2023-03-05T10:23:33.761Z,96910.00
2023-03-05T10:26:27.807Z,96914.00
2023-03-05T10:29:18.909Z,96907.00
2023-03-05T10:32:23.699Z,96923.00
2023-03-05T10:35:22.456Z,96916.00
2023-03-05T10:38:14.898Z,96921.00
2023-03-05T10:40:52.225Z,96919.00
2023-03-05T10:43:51.126Z,96915.00
2023-03-05T10:46:21.593Z,96908.00
2023-03-05T10:48:58.601Z,96894.00
2023-03-05T10:51:46.012Z,96901.00
2023-03-05T10:54:25.522Z,96890.00
2023-03-05T10:57:09.689Z,96885.00
2023-03-05T10:59:36.538Z,96878.00
2023-03-05T11:02:08.802Z,96883.00
2023-03-05T11:04:39.163Z,96876.00
2023-03-05T11:07:32.947Z,96869.00
2023-03-05T11:10:19.117Z,96869.00
2023-03-05T11:12:47.082Z,96867.00
2023-03-05T11:15:13.751Z,96871.00
2023-03-05T11:18:05.595Z,96861.00
2023-03-05T11:20:36.180Z,96855.00
2023-03-05T11:23:23.790Z,96857.00
2023-03-05T11:26:00.924Z,96857.00
2023-03-05T11:28:37.421Z,96863.00
2023-03-05T11:31:29.408Z,96857.00
2023-03-05T11:34:06.590Z,96848.00
2023-03-05T11:36:42.373Z,96849.00
2023-03-05T11:39:18.332Z,96838.00
2023-03-05T11:41:56.488Z,96843.00
2023-03-05T11:44:45.689Z,96841.00
2023-03-05T11:47:42.495Z,96838.00
2023-03-05T11:50:25.614Z,96834.00
2023-03-05T11:52:58.315Z,96827.00
2023-03-05T11:56:12.471Z,96822.00
2023-03-05T11:59:12.007Z,96821.00
2023-03-05T12:01:49.471Z,96825.00
2023-03-05T12:04:17.550Z,96811.00
2023-03-05T12:06:52.413Z,96808.00
2023-03-05T12:09:53.557Z,96808.00
2023-03-05T12:12:37.446Z,96801.00
2023-03-05T12:15:36.799Z,96801.00
2023-03-05T12:18:21.223Z,96794.00
2023-03-05T12:21:15.619Z,96786.00
2023-03-05T12:24:11.782Z,96786.00
2023-03-05T12:27:03.177Z,96784.00
2023-03-05T12:29:40.618Z,96787.00
2023-03-05T12:32:22.366Z,96773.00
2023-03-05T12:35:06.329Z,96768.00
2023-03-05T12:37:32.945Z,96765.00
2023-03-05T12:40:08.393Z,96754.00
2023-03-05T12:42:35.444Z,96757.00
2023-03-05T12:45:15.725Z,96748.00
2023-03-05T12:47:44.793Z,96750.00
2023-03-05T12:50:29.793Z,96750.00
2023-03-05T12:53:15.091Z,96744.00
2023-03-05T12:55:47.474Z,96740.00
2023-03-05T12:58:32.071Z,96744.00
2023-03-05T13:01:07.829Z,96745.00
2023-03-05T13:03:40.901Z,96733.00
2023-03-05T13:06:25.849Z,96735.00
2023-03-05T13:09:24.138Z,96731.00
2023-03-05T13:11:53.823Z,96721.00
2023-03-05T13:14:41.322Z,96723.00
2023-03-05T13:17:34.710Z,96717.00
2023-03-05T13:20:28.853Z,96715.00
2023-03-05T13:23:20.366Z,96714.00
2023-03-05T13:26:20.994Z,96708.00
2023-03-05T13:29:33.659Z,96701.00
2023-03-05T13:32:28.400Z,96697.00
2023-03-05T13:35:00.607Z,96695.00
2023-03-05T13:37:36.785Z,96700.00
2023-03-05T13:40:23.838Z,96698.00
2023-03-05T13:42:53.248Z,96697.00
2023-03-05T13:45:31.839Z,96690.00
2023-03-05T13:48:05.798Z,96689.00
2023-03-05T13:50:39.665Z,96690.00
2023-03-05T13:53:28.323Z,96683.00
2023-03-05T13:56:02.917Z,96682.00
2023-03-05T13:58:49.349Z,96683.00
2023-03-05T14:01:43.878Z,96677.00
2023-03-05T14:04:13.798Z,96680.00
2023-03-05T14:07:01.991Z,96678.00
2023-03-05T14:09:40.683Z,96677.00
2023-03-05T14:12:24.896Z,96667.00
2023-03-05T14:14:51.726Z,96674.00
2023-03-05T14:17:41.627Z,96677.00
2023-03-05T14:20:23.286Z,96665.00
2023-03-05T14:22:53.083Z,96653.00
2023-03-05T14:25:40.173Z,96660.00
2023-03-05T14:28:27.943Z,96663.00
2023-03-05T14:30:56.856Z,96654.00
2023-03-05T14:33:27.998Z,96652.00
2023-03-05T14:35:55.768Z,96648.00
2023-03-05T14:38:27.888Z,96644.00
2023-03-05T14:40:54.878Z,96651.00
2023-03-05T14:43:21.935Z,96645.00
2023-03-05T14:45:48.870Z,96638.00
2023-03-05T14:48:18.683Z,96641.00
2023-03-05T14:50:51.619Z,96636.00
2023-03-05T14:53:23.111Z,96633.00
2023-03-05T14:55:56.575Z,96628.00
2023-03-05T14:58:27.942Z,96622.00
2023-03-05T15:00:55.583Z,96611.00
2023-03-05T15:03:25.626Z,96616.00
2023-03-05T15:05:56.369Z,96605.00
2023-03-05T15:08:29.657Z,96612.00
2023-03-05T15:10:56.858Z,96609.00
2023-03-05T15:13:24.233Z,96601.00
2023-03-05T15:15:52.645Z,96590.00
2023-03-05T15:18:22.616Z,96587.00
2023-03-05T15:20:52.887Z,96580.00
2023-03-05T15:23:20.121Z,96579.00
2023-03-05T15:25:47.336Z,96572.00
2023-03-05T15:28:14.605Z,96574.00
2023-03-05T15:30:47.766Z,96584.00
2023-03-05T15:33:17.277Z,96571.00
2023-03-05T15:35:44.686Z,96570.00
2023-03-05T15:38:11.755Z,96571.00
2023-03-05T15:40:38.551Z,96565.00
2023-03-05T15:43:05.350Z,96562.00
2023-03-05T15:45:32.253Z,96562.00
2023-03-05T15:47:59.075Z,96567.00
2023-03-05T15:50:26.375Z,96567.00
2023-03-05T15:52:53.192Z,96557.00
2023-03-05T15:55:20.748Z,96553.00
2023-03-05T15:57:50.269Z,96548.00
2023-03-05T16:00:25.698Z,96558.00
2023-03-05T16:02:53.895Z,96547.00
2023-03-05T16:05:20.915Z,96547.00
2023-03-05T16:07:51.853Z,96548.00
2023-03-05T16:10:25.148Z,96548.00
2023-03-05T16:13:03.634Z,96541.00
2023-03-05T16:15:33.072Z,96541.00
2023-03-05T16:18:03.632Z,96538.00
2023-03-05T16:20:30.547Z,96530.00
2023-03-05T16:22:57.482Z,96535.00
2023-03-05T16:25:24.257Z,96526.00
2023-03-05T16:27:51.163Z,96528.00
2023-03-05T16:30:18.596Z,96526.00
2023-03-05T16:32:45.460Z,96529.00
2023-03-05T16:35:12.487Z,96521.00
2023-03-05T16:37:40.693Z,96515.00
2023-03-05T16:40:10.141Z,96509.00
2023-03-05T16:42:37.314Z,96508.00
2023-03-05T16:45:06.753Z,96505.00
2023-03-05T16:47:33.605Z,96513.00
2023-03-05T16:50:00.898Z,96509.00
2023-03-05T16:52:29.568Z,96506.00
2023-03-05T16:54:56.318Z,96509.00
2023-03-05T16:57:25.302Z,96506.00
2023-03-05T16:59:54.058Z,96506.00
2023-03-05T17:02:20.970Z,96503.00
2023-03-05T17:04:48.867Z,96500.00
2023-03-05T17:07:15.989Z,96489.00
2023-03-05T17:09:44.321Z,96494.00
2023-03-05T17:12:11.203Z,96484.00
2023-03-05T17:14:37.981Z,96488.00
2023-03-05T17:17:04.782Z,96494.00
2023-03-05T17:19:32.027Z,96495.00
2023-03-05T17:21:58.935Z,96504.00
2023-03-05T17:24:26.219Z,96499.00
2023-03-05T17:26:53.064Z,96492.00
2023-03-05T17:29:19.959Z,96489.00
2023-03-05T17:31:49.751Z,96494.00
2023-03-05T17:34:16.780Z,96500.00
2023-03-05T17:36:45.464Z,96500.00
2023-03-05T17:39:13.090Z,96502.00
2023-03-05T17:41:40.001Z,96496.00
2023-03-05T17:44:06.921Z,96486.00
2023-03-05T17:46:33.702Z,96487.00
2023-03-05T17:49:00.472Z,96483.00
2023-03-05T17:51:27.273Z,96491.00
2023-03-05T17:53:54.043Z,96506.00
2023-03-05T17:56:22.055Z,96501.00
2023-03-05T17:58:49.827Z,96491.00
2023-03-05T18:01:26.127Z,96498.00
2023-03-05T18:03:53.108Z,96494.00
2023-03-05T18:06:20.073Z,96500.00
2023-03-05T18:08:46.904Z,96492.00
2023-03-05T18:11:14.306Z,96499.00
2023-03-05T18:13:41.899Z,96499.00
2023-03-05T18:16:09.754Z,96493.00
2023-03-05T18:18:36.837Z,96490.00
2023-03-05T18:21:03.816Z,96486.00
2023-03-05T18:23:30.653Z,96492.00
2023-03-05T18:25:57.426Z,96495.00
2023-03-05T18:28:25.813Z,96494.00
2023-03-05T18:30:53.279Z,96489.00
2023-03-05T18:33:25.052Z,96493.00
2023-03-05T18:35:52.635Z,96491.00
2023-03-05T18:38:25.494Z,96500.00
2023-03-05T18:40:54.604Z,96484.00
2023-03-05T18:43:22.754Z,96487.00
2023-03-05T18:45:52.284Z,96490.00
2023-03-05T18:48:19.748Z,96480.00
2023-03-05T18:50:50.246Z,96479.00
2023-03-05T18:53:17.422Z,96476.00
2023-03-05T18:55:44.989Z,96485.00
2023-03-05T18:58:15.435Z,96473.00
2023-03-05T19:00:44.872Z,96466.00
2023-03-05T19:03:12.730Z,96467.00
2023-03-05T19:05:41.623Z,96464.00
2023-03-05T19:08:08.865Z,96455.00
2023-03-05T19:10:36.234Z,96459.00
2023-03-05T19:13:25.315Z,96457.00
2023-03-05T19:15:52.350Z,96451.00
2023-03-05T19:18:20.578Z,96440.00
2023-03-05T19:20:57.048Z,96442.00
2023-03-05T19:23:25.271Z,96449.00
2023-03-05T19:25:52.127Z,96449.00
2023-03-05T19:28:19.474Z,96443.00
2023-03-05T19:30:49.491Z,96439.00
2023-03-05T19:33:16.329Z,96461.00
2023-03-05T19:35:43.159Z,96441.00
2023-03-05T19:38:10.020Z,96440.00
2023-03-05T19:40:36.755Z,96432.00
2023-03-05T19:43:05.534Z,96432.00
2023-03-05T19:45:33.679Z,96437.00
2023-03-05T19:48:01.160Z,96433.00
2023-03-05T19:50:28.444Z,96431.00
2023-03-05T19:52:55.176Z,96424.00
2023-03-05T19:55:21.907Z,96420.00
2023-03-05T19:57:48.723Z,96422.00
2023-03-05T20:00:16.114Z,96423.00
2023-03-05T20:02:42.893Z,96427.00
2023-03-05T20:05:09.925Z,96422.00
2023-03-05T20:07:36.716Z,96416.00
2023-03-05T20:10:03.810Z,96419.00
2023-03-05T20:12:30.631Z,96423.00
2023-03-05T20:14:57.518Z,96420.00
2023-03-05T20:17:24.412Z,96419.00
2023-03-05T20:19:51.191Z,96417.00
2023-03-05T20:22:18.138Z,96423.00
2023-03-05T20:24:44.873Z,96413.00
2023-03-05T20:27:11.674Z,96414.00
2023-03-05T20:29:38.478Z,96403.00
2023-03-05T20:32:05.346Z,96405.00
2023-03-05T20:34:32.220Z,96396.00
2023-03-05T20:36:59.388Z,96402.00
2023-03-05T20:39:26.228Z,96399.00
2023-03-05T20:41:52.987Z,96394.00
2023-03-05T20:44:20.129Z,96393.00
2023-03-05T20:46:59.515Z,96391.00
2023-03-05T20:49:26.333Z,96389.00
2023-03-05T20:51:53.069Z,96384.00
2023-03-05T20:54:20.001Z,96387.00
2023-03-05T20:56:47.710Z,96389.00
2023-03-05T20:59:14.467Z,96377.00
2023-03-05T21:01:41.309Z,96380.00
2023-03-05T21:04:08.490Z,96379.00
2023-03-05T21:06:36.703Z,96382.00
2023-03-05T21:09:04.203Z,96379.00
2023-03-05T21:11:31.945Z,96374.00
2023-03-05T21:13:59.207Z,96374.00
2023-03-05T21:16:27.478Z,96371.00
2023-03-05T21:18:55.876Z,96369.00
2023-03-05T21:21:23.095Z,96367.00
2023-03-05T21:23:49.975Z,96364.00
2023-03-05T21:26:16.931Z,96357.00
2023-03-05T21:28:43.838Z,96358.00
2023-03-05T21:31:16.560Z,96346.00
2023-03-05T21:33:43.516Z,96354.00
2023-03-05T21:36:10.644Z,96357.00
2023-03-05T21:38:37.462Z,96345.00
2023-03-05T21:41:05.452Z,96345.00
2023-03-05T21:43:32.968Z,96337.00
2023-03-05T21:46:01.874Z,96345.00
2023-03-05T21:48:29.372Z,96341.00
2023-03-05T21:50:57.145Z,96329.00
2023-03-05T21:53:24.097Z,96325.00
2023-03-05T21:56:03.825Z,96327.00
2023-03-05T21:58:32.369Z,96319.00
2023-03-05T22:00:59.658Z,96315.00
2023-03-05T22:03:27.529Z,96315.00
2023-03-05T22:05:55.416Z,96317.00
2023-03-05T22:08:22.856Z,96313.00
2023-03-05T22:10:50.274Z,96313.00
2023-03-05T22:13:19.844Z,96312.00
2023-03-05T22:15:55.817Z,96313.00
2023-03-05T22:18:28.983Z,96316.00
2023-03-05T22:20:57.770Z,96307.00
2023-03-05T22:23:31.335Z,96314.00
2023-03-05T22:26:05.271Z,96311.00
2023-03-05T22:28:33.804Z,96308.00
2023-03-05T22:31:01.013Z,96300.00
2023-03-05T22:33:28.809Z,96298.00
2023-03-05T22:35:55.645Z,96291.00
2023-03-05T22:38:22.781Z,96289.00
2023-03-05T22:40:50.658Z,96291.00
2023-03-05T22:43:19.139Z,96286.00
2023-03-05T22:45:46.210Z,96284.00
2023-03-05T22:48:13.178Z,96283.00
2023-03-05T22:50:41.753Z,96273.00
2023-03-05T22:53:08.870Z,96274.00
2023-03-05T22:55:40.203Z,96274.00
2023-03-05T22:58:07.130Z,96265.00
2023-03-05T23:00:33.907Z,96260.00
2023-03-05T23:03:01.022Z,96269.00
2023-03-05T23:05:27.864Z,96261.00
2023-03-05T23:07:54.685Z,96263.00
2023-03-05T23:10:26.966Z,96256.00
2023-03-05T23:12:56.808Z,96252.00
2023-03-05T23:15:33.916Z,96248.00
2023-03-05T23:18:01.329Z,96241.00
2023-03-05T23:20:31.927Z,96231.00
2023-03-05T23:22:59.089Z,96238.00
2023-03-05T23:25:30.351Z,96237.00
2023-03-05T23:27:58.481Z,96233.00
2023-03-05T23:30:34.571Z,96239.00
2023-03-05T23:33:22.992Z,96221.00
2023-03-05T23:35:56.952Z,96218.00
2023-03-05T23:38:26.350Z,96228.00
2023-03-05T23:40:58.529Z,96216.00
2023-03-05T23:43:27.230Z,96220.00
2023-03-05T23:45:57.214Z,96212.00
2023-03-05T23:48:26.294Z,96221.00
2023-03-05T23:50:53.656Z,96215.00
2023-03-05T23:53:24.649Z,96215.00
2023-03-05T23:55:52.018Z,96213.00
2023-03-05T23:58:20.461Z,96206.00
